Time;durP1;ratioP1;P1;durP2;ratioP2;P2;SDS_P1;SDS_P2;PMS_P1;PMS_P2;Temp;Humidity;BMP_temperature;BMP_pressure;BME280_temperature;BME280_humidity;BME280_pressure;Samples;Min_cycle;Max_cycle;Signal;HPM_P1;HPM_P2
2022/08/23 03:48:09;;;;;;;21.27;9.63;;;;;;;;;;4490824;22;20243;-56
2022/08/23 03:50:37;;;;;;;17.45;8.02;;;;;;;;;;5067637;28;20215;-55
2022/08/23 03:53:04;;;;;;;22.77;9.30;;;;;;;;;;5055862;28;20350;-56
2022/08/23 03:55:32;;;;;;;20.17;12.30;;;;;;;;;;5041093;28;20615;-58
2022/08/23 03:58:09;;;;;;;20.20;8.80;;;;;;;;;;5043469;28;20262;-56
2022/08/23 04:00:36;;;;;;;20.80;9.98;;;;;;;;;;5066272;28;20295;-58
2022/08/23 04:03:03;;;;;;;14.15;8.40;;;;;;;;;;5057434;28;20204;-58
2022/08/23 04:05:38;;;;;;;32.15;10.82;;;;;;;;;;5048875;28;20226;-58
2022/08/23 04:08:12;;;;;;;17.75;8.02;;;;;;;;;;5053630;28;20294;-58
2022/08/23 04:10:44;;;;;;;14.90;8.40;;;;;;;;;;5040171;28;20223;-54
2022/08/23 04:13:11;;;;;;;24.25;9.48;;;;;;;;;;5066824;28;20232;-57
2022/08/23 04:15:38;;;;;;;22.95;9.80;;;;;;;;;;5055851;28;20231;-57
2022/08/23 04:18:09;;;;;;;33.78;10.00;;;;;;;;;;5063364;28;20224;-56
2022/08/23 04:20:36;;;;;;;20.30;9.05;;;;;;;;;;5049042;28;20223;-56
2022/08/23 04:23:04;;;;;;;28.15;9.50;;;;;;;;;;5038928;28;20247;-55
2022/08/23 04:25:44;;;;;;;31.60;9.20;;;;;;;;;;5038670;28;20231;-57
2022/08/23 04:28:11;;;;;;;32.30;9.75;;;;;;;;;;5038675;28;20220;-55
2022/08/23 04:30:38;;;;;;;17.52;9.65;;;;;;;;;;5038232;28;20228;-58
2022/08/23 04:33:07;;;;;;;23.38;10.02;;;;;;;;;;5038354;28;20232;-54
2022/08/23 04:35:40;;;;;;;24.20;10.57;;;;;;;;;;5037662;28;20219;-57
2022/08/23 04:38:08;;;;;;;27.30;9.90;;;;;;;;;;5038653;28;20227;-54
2022/08/23 04:43:40;;;;;;;33.22;11.55;;;;;;;;;;5054976;28;20223;-56
2022/08/23 04:46:13;;;;;;;30.35;10.73;;;;;;;;;;5054830;28;20301;-58
2022/08/23 04:48:42;;;;;;;37.20;10.82;;;;;;;;;;5055242;28;20281;-57
2022/08/23 04:51:09;;;;;;;25.40;11.10;;;;;;;;;;5038273;28;20224;-56
2022/08/23 04:53:38;;;;;;;30.42;11.13;;;;;;;;;;5055335;28;20255;-56
2022/08/23 04:56:33;;;;;;;27.08;10.38;;;;;;;;;;5053770;28;20239;-57
2022/08/23 04:59:01;;;;;;;23.17;11.07;;;;;;;;;;5037163;28;20285;-57
2022/08/23 05:01:29;;;;;;;24.05;10.60;;;;;;;;;;5053934;28;20224;-56
2022/08/23 05:03:57;;;;;;;24.27;10.50;;;;;;;;;;5053431;28;20239;-56
2022/08/23 05:06:26;;;;;;;23.17;10.85;;;;;;;;;;5054300;28;20273;-55
2022/08/23 05:08:53;;;;;;;31.13;10.80;;;;;;;;;;5054454;28;20232;-56
2022/08/23 05:11:21;;;;;;;31.17;11.20;;;;;;;;;;5038549;28;20211;-56
2022/08/23 05:13:49;;;;;;;22.67;9.18;;;;;;;;;;5038673;28;20295;-56
2022/08/23 05:16:16;;;;;;;29.67;10.35;;;;;;;;;;5055985;28;20223;-57
2022/08/23 05:18:52;;;;;;;28.35;9.73;;;;;;;;;;5038893;28;20214;-55
2022/08/23 05:21:22;;;;;;;28.45;9.63;;;;;;;;;;5038178;28;20621;-56
2022/08/23 05:23:49;;;;;;;33.63;9.77;;;;;;;;;;5038454;28;20232;-57
2022/08/23 05:26:22;;;;;;;32.33;9.70;;;;;;;;;;5055013;28;20196;-55
2022/08/23 05:28:49;;;;;;;26.80;9.10;;;;;;;;;;5038912;28;20200;-57
2022/08/23 05:31:25;;;;;;;25.15;10.05;;;;;;;;;;5038565;28;20192;-56
2022/08/23 05:33:54;;;;;;;33.03;9.75;;;;;;;;;;5038377;28;20199;-56
2022/08/23 05:36:31;;;;;;;27.05;9.82;;;;;;;;;;5054968;28;20214;-57
2022/08/23 05:38:59;;;;;;;27.00;9.70;;;;;;;;;;5055362;28;20234;-56
2022/08/23 05:41:27;;;;;;;33.65;9.63;;;;;;;;;;5054719;28;20214;-56
2022/08/23 05:44:06;;;;;;;28.58;9.90;;;;;;;;;;5038229;28;20207;-57
2022/08/23 05:46:35;;;;;;;28.58;9.32;;;;;;;;;;5054375;28;20227;-54
2022/08/23 05:49:35;;;;;;;32.92;8.90;;;;;;;;;;5013578;28;20208;-56
2022/08/23 05:52:08;;;;;;;28.17;9.02;;;;;;;;;;4997415;28;20225;-57
2022/08/23 05:54:36;;;;;;;39.38;9.40;;;;;;;;;;4997574;28;20255;-56
2022/08/23 05:57:30;;;;;;;20.77;8.50;;;;;;;;;;4997630;28;20271;-57
2022/08/23 05:59:57;;;;;;;42.83;8.68;;;;;;;;;;5005233;28;20225;-59
2022/08/23 06:02:24;;;;;;;23.75;8.45;;;;;;;;;;4995074;28;20252;-59
2022/08/23 06:04:51;;;;;;;21.63;7.88;;;;;;;;;;4995953;28;20217;-59
2022/08/23 06:07:23;;;;;;;34.70;7.70;;;;;;;;;;4996327;28;20280;-59
2022/08/23 06:09:51;;;;;;;41.20;7.88;;;;;;;;;;4995808;28;20551;-59
2022/08/23 06:12:18;;;;;;;30.20;7.75;;;;;;;;;;4995021;28;20312;-59
2022/08/23 06:14:45;;;;;;;21.60;8.35;;;;;;;;;;4994997;28;20705;-59
2022/08/23 06:17:13;;;;;;;39.20;8.30;;;;;;;;;;4996347;28;20225;-56
2022/08/23 06:19:40;;;;;;;23.85;7.72;;;;;;;;;;5013255;28;20207;-58
2022/08/23 06:22:29;;;;;;;27.30;8.25;;;;;;;;;;5012729;28;20205;-58
2022/08/23 06:24:56;;;;;;;30.73;8.35;;;;;;;;;;5028250;28;20547;-58
2022/08/23 06:27:40;;;;;;;28.25;7.57;;;;;;;;;;5036828;28;20223;-58
2022/08/23 06:30:08;;;;;;;36.90;7.53;;;;;;;;;;5053362;28;20200;-57
2022/08/23 06:32:45;;;;;;;25.20;7.30;;;;;;;;;;5053357;28;20302;-58
2022/08/23 06:35:30;;;;;;;40.45;7.53;;;;;;;;;;5054199;28;20242;-56
2022/08/23 06:38:19;;;;;;;24.00;7.38;;;;;;;;;;5053915;28;20189;-58
2022/08/23 06:41:10;;;;;;;30.88;7.63;;;;;;;;;;5054597;28;20207;-58
2022/08/23 06:43:41;;;;;;;30.65;8.00;;;;;;;;;;5053846;28;20192;-58
2022/08/23 06:46:28;;;;;;;30.05;7.55;;;;;;;;;;5054438;28;20261;-57
2022/08/23 06:48:56;;;;;;;38.10;7.40;;;;;;;;;;5054128;28;20184;-58
2022/08/23 06:51:30;;;;;;;35.92;7.65;;;;;;;;;;5053686;28;20208;-58
2022/08/23 06:54:21;;;;;;;39.45;7.72;;;;;;;;;;5051629;28;20193;-58
2022/08/23 06:57:27;;;;;;;43.35;7.85;;;;;;;;;;4992687;28;20212;-58
2022/08/23 07:00:13;;;;;;;37.08;8.38;;;;;;;;;;4996274;28;20213;-58
2022/08/23 07:03:11;;;;;;;35.80;7.00;;;;;;;;;;5033397;28;20212;-58
2022/08/23 07:05:57;;;;;;;25.90;7.07;;;;;;;;;;5057747;28;20192;-58
2022/08/23 07:08:27;;;;;;;43.88;8.32;;;;;;;;;;5039092;28;20207;-58
2022/08/23 07:10:57;;;;;;;36.17;7.18;;;;;;;;;;5056768;28;20210;-58
2022/08/23 07:13:24;;;;;;;33.88;7.10;;;;;;;;;;5057985;28;20602;-58
2022/08/23 07:15:56;;;;;;;45.97;7.50;;;;;;;;;;5057243;28;20257;-58
2022/08/23 07:18:24;;;;;;;41.78;8.48;;;;;;;;;;5055358;28;20200;-58
2022/08/23 07:21:01;;;;;;;39.55;8.02;;;;;;;;;;5057568;28;20632;-58
2022/08/23 07:23:32;;;;;;;41.13;7.32;;;;;;;;;;5039206;28;20651;-58
2022/08/23 07:26:06;;;;;;;42.85;8.60;;;;;;;;;;5039080;28;20196;-58
2022/08/23 07:28:34;;;;;;;37.45;6.80;;;;;;;;;;5056002;28;20253;-59
2022/08/23 07:31:19;;;;;;;41.33;7.40;;;;;;;;;;5056218;28;20295;-58
2022/08/23 07:33:47;;;;;;;41.47;7.35;;;;;;;;;;5039690;28;20648;-58
2022/08/23 07:36:21;;;;;;;48.03;7.03;;;;;;;;;;5055659;28;20610;-58
2022/08/23 07:38:48;;;;;;;50.78;8.20;;;;;;;;;;5038471;28;20770;-58
2022/08/23 07:41:19;;;;;;;44.78;7.00;;;;;;;;;;5039561;28;20258;-58
2022/08/23 07:43:47;;;;;;;37.40;6.38;;;;;;;;;;5055679;28;20207;-59
2022/08/23 07:46:14;;;;;;;37.38;7.68;;;;;;;;;;5039807;28;20200;-58
2022/08/23 07:48:43;;;;;;;44.28;7.68;;;;;;;;;;5052560;28;20243;-58
2022/08/23 07:51:29;;;;;;;43.92;6.75;;;;;;;;;;5034889;28;20196;-58
2022/08/23 07:53:57;;;;;;;53.58;7.20;;;;;;;;;;5036506;28;20228;-59
2022/08/23 07:56:24;;;;;;;50.67;7.88;;;;;;;;;;5036151;28;20696;-58
2022/08/23 07:59:07;;;;;;;46.22;7.50;;;;;;;;;;5053138;28;20505;-58
2022/08/23 08:01:52;;;;;;;41.83;7.05;;;;;;;;;;5037564;28;20208;-58
2022/08/23 08:04:21;;;;;;;58.28;7.75;;;;;;;;;;5052523;28;20213;-59
2022/08/23 08:06:50;;;;;;;48.47;7.38;;;;;;;;;;5035127;28;20263;-58
2022/08/23 08:09:42;;;;;;;42.92;6.43;;;;;;;;;;5034925;28;20192;-59
2022/08/23 08:12:10;;;;;;;46.15;7.90;;;;;;;;;;5036549;28;20201;-58
2022/08/23 08:14:41;;;;;;;56.38;7.35;;;;;;;;;;5052466;28;20611;-59
2022/08/23 08:17:09;;;;;;;67.22;8.35;;;;;;;;;;5052330;28;20212;-58
2022/08/23 08:19:56;;;;;;;46.70;6.38;;;;;;;;;;5044635;28;20703;-58
2022/08/23 08:22:56;;;;;;;50.08;7.47;;;;;;;;;;5022769;28;20216;-59
2022/08/23 08:26:19;;;;;;;49.80;7.53;;;;;;;;;;5054671;28;20277;-58
2022/08/23 08:28:55;;;;;;;43.20;7.03;;;;;;;;;;5053801;28;20196;-58
2022/08/23 08:31:24;;;;;;;50.78;6.60;;;;;;;;;;5055778;28;20203;-58
2022/08/23 08:33:53;;;;;;;65.05;7.40;;;;;;;;;;5054769;28;20230;-58
2022/08/23 08:36:34;;;;;;;55.45;7.65;;;;;;;;;;5055040;28;20196;-58
2022/08/23 08:39:06;;;;;;;50.72;7.93;;;;;;;;;;5038684;28;20188;-58
2022/08/23 08:41:49;;;;;;;63.83;7.55;;;;;;;;;;5054146;28;20207;-59
2022/08/23 08:44:51;;;;;;;57.40;8.80;;;;;;;;;;5055946;28;20375;-58
2022/08/23 08:47:26;;;;;;;72.97;8.18;;;;;;;;;;5054498;28;20531;-59
2022/08/23 08:49:53;;;;;;;52.63;8.60;;;;;;;;;;5054421;28;20199;-58
2022/08/23 08:52:25;;;;;;;48.05;7.80;;;;;;;;;;5055084;28;20210;-59
2022/08/23 08:55:03;;;;;;;65.00;7.97;;;;;;;;;;5055190;28;20609;-58
2022/08/23 08:57:37;;;;;;;77.53;8.75;;;;;;;;;;5038952;28;20523;-59
2022/08/23 09:00:08;;;;;;;56.15;7.50;;;;;;;;;;5053885;28;20192;-59
2022/08/23 09:02:37;;;;;;;67.45;8.18;;;;;;;;;;5054667;28;20200;-58
2022/08/23 09:05:18;;;;;;;65.38;9.25;;;;;;;;;;5019406;28;20692;-58
2022/08/23 09:08:12;;;;;;;66.10;8.05;;;;;;;;;;5034614;28;20275;-58
2022/08/23 09:10:53;;;;;;;74.63;7.88;;;;;;;;;;5028522;28;20209;-59
2022/08/23 09:13:54;;;;;;;69.97;8.20;;;;;;;;;;5034955;28;20308;-58
2022/08/23 09:16:45;;;;;;;67.53;8.18;;;;;;;;;;5019164;28;20216;-59
2022/08/23 09:19:12;;;;;;;67.28;8.77;;;;;;;;;;5034628;28;20280;-58
2022/08/23 09:21:53;;;;;;;57.55;7.50;;;;;;;;;;5032523;28;20550;-58
2022/08/23 09:24:21;;;;;;;58.67;8.13;;;;;;;;;;5016952;28;20185;-58
2022/08/23 09:26:58;;;;;;;77.22;8.93;;;;;;;;;;5033186;28;20200;-58
2022/08/23 09:29:27;;;;;;;76.15;8.70;;;;;;;;;;5035153;28;20227;-57
2022/08/23 09:32:05;;;;;;;69.05;8.32;;;;;;;;;;5034610;28;20300;-58
2022/08/23 09:34:35;;;;;;;64.72;7.50;;;;;;;;;;5033490;28;20227;-58
2022/08/23 09:37:11;;;;;;;77.78;8.52;;;;;;;;;;5034121;28;20204;-58
2022/08/23 09:39:42;;;;;;;78.97;8.27;;;;;;;;;;5034456;28;20633;-58
2022/08/23 09:42:30;;;;;;;79.40;9.38;;;;;;;;;;5034566;28;20400;-58
2022/08/23 09:44:59;;;;;;;76.43;7.90;;;;;;;;;;5032533;28;20192;-58
2022/08/23 09:47:32;;;;;;;75.57;9.20;;;;;;;;;;5042346;28;20242;-59
2022/08/23 09:50:37;;;;;;;62.95;8.68;;;;;;;;;;5036082;28;20609;-58
2022/08/23 09:53:08;;;;;;;75.90;8.30;;;;;;;;;;5055062;28;20222;-58
2022/08/23 09:55:41;;;;;;;63.75;8.38;;;;;;;;;;5037888;28;20196;-58
2022/08/23 09:58:36;;;;;;;82.90;8.65;;;;;;;;;;5021605;28;20188;-58
2022/08/23 10:01:10;;;;;;;76.75;8.95;;;;;;;;;;5016646;28;20656;-58
2022/08/23 10:03:39;;;;;;;65.68;9.35;;;;;;;;;;5037510;28;20192;-58
2022/08/23 10:06:29;;;;;;;71.32;8.55;;;;;;;;;;5037039;28;20226;-58
2022/08/23 10:09:04;;;;;;;67.43;8.43;;;;;;;;;;5036934;28;20192;-58
2022/08/23 10:11:44;;;;;;;65.00;9.57;;;;;;;;;;5037063;28;20231;-58
2022/08/23 10:14:17;;;;;;;62.72;10.00;;;;;;;;;;5037123;28;20207;-58
2022/08/23 10:17:19;;;;;;;89.13;10.23;;;;;;;;;;5020383;28;20192;-58
2022/08/23 10:20:36;;;;;;;71.68;8.48;;;;;;;;;;5035939;28;20208;-58
2022/08/23 10:23:16;;;;;;;92.15;8.93;;;;;;;;;;5018429;28;20639;-58
2022/08/23 10:25:57;;;;;;;85.65;8.57;;;;;;;;;;5022054;28;20212;-58
2022/08/23 10:31:56;;;;;;;85.40;8.10;;;;;;;;;;5036507;28;20188;-58
2022/08/23 10:34:42;;;;;;;66.55;7.70;;;;;;;;;;5021960;28;20235;-58
2022/08/23 10:37:37;;;;;;;76.82;9.50;;;;;;;;;;5037524;28;20188;-58
2022/08/23 10:40:13;;;;;;;61.78;8.25;;;;;;;;;;5054533;28;20203;-58
2022/08/23 10:43:04;;;;;;;64.88;7.63;;;;;;;;;;5037329;28;20192;-58
2022/08/23 10:45:35;;;;;;;76.75;8.88;;;;;;;;;;5054613;28;20557;-58
2022/08/23 10:48:14;;;;;;;66.43;7.88;;;;;;;;;;5036841;28;20239;-58
2022/08/23 10:50:47;;;;;;;81.70;8.85;;;;;;;;;;5054577;28;20505;-58
2022/08/23 10:53:30;;;;;;;67.70;7.80;;;;;;;;;;5068635;28;20223;-58
2022/08/23 10:56:12;;;;;;;68.68;7.80;;;;;;;;;;5054118;28;20188;-58
2022/08/23 10:58:54;;;;;;;68.82;7.65;;;;;;;;;;5053674;28;20199;-58
2022/08/23 11:01:44;;;;;;;59.35;8.25;;;;;;;;;;5053572;28;20207;-58
2022/08/23 11:04:23;;;;;;;73.68;8.73;;;;;;;;;;5053825;28;20284;-56
2022/08/23 11:07:26;;;;;;;59.78;7.57;;;;;;;;;;5053331;28;20698;-55
2022/08/23 11:10:06;;;;;;;76.22;7.68;;;;;;;;;;5054055;28;20559;-56
2022/08/23 11:12:55;;;;;;;81.05;7.90;;;;;;;;;;5053520;28;20211;-54
2022/08/23 11:15:43;;;;;;;73.50;8.38;;;;;;;;;;5037122;28;20196;-56
2022/08/23 11:18:28;;;;;;;72.53;8.07;;;;;;;;;;5053593;28;20365;-56
2022/08/23 11:21:07;;;;;;;68.93;7.90;;;;;;;;;;5037004;28;20199;-56
2022/08/23 11:23:49;;;;;;;82.18;7.75;;;;;;;;;;5053357;28;20277;-55
2022/08/23 11:26:26;;;;;;;74.75;7.78;;;;;;;;;;5036735;28;20295;-56
2022/08/23 11:28:59;;;;;;;76.60;8.07;;;;;;;;;;5053511;28;20208;-57
2022/08/23 11:31:34;;;;;;;58.85;7.18;;;;;;;;;;5034501;28;20196;-58
2022/08/23 11:34:01;;;;;;;70.10;8.23;;;;;;;;;;5036172;28;20230;-58
2022/08/23 11:36:30;;;;;;;67.85;7.25;;;;;;;;;;5035498;28;20278;-58
2022/08/23 11:38:59;;;;;;;80.57;8.70;;;;;;;;;;5035344;28;20231;-58
2022/08/23 11:41:30;;;;;;;72.18;7.93;;;;;;;;;;5034821;28;20211;-58
2022/08/23 11:44:00;;;;;;;70.80;7.95;;;;;;;;;;5036960;28;20196;-58
2022/08/23 11:46:33;;;;;;;65.47;7.55;;;;;;;;;;5040369;28;20188;-58
2022/08/23 11:49:15;;;;;;;77.75;8.18;;;;;;;;;;5039356;28;20192;-58
2022/08/23 11:51:57;;;;;;;64.50;7.45;;;;;;;;;;5057391;28;20183;-58
2022/08/23 11:55:02;;;;;;;76.15;7.32;;;;;;;;;;5056447;28;20281;-58
2022/08/23 11:57:35;;;;;;;75.18;7.95;;;;;;;;;;5038690;28;20192;-58
2022/08/23 12:00:17;;;;;;;67.68;7.65;;;;;;;;;;5056787;28;20256;-58
2022/08/23 12:03:33;;;;;;;68.13;8.85;;;;;;;;;;5042011;28;20192;-58
2022/08/23 12:06:35;;;;;;;70.75;7.63;;;;;;;;;;5040243;28;20189;-58
2022/08/23 12:09:21;;;;;;;84.32;7.95;;;;;;;;;;5017131;28;20203;-58
2022/08/23 12:11:54;;;;;;;76.13;7.85;;;;;;;;;;5056347;28;20212;-58
2022/08/23 12:14:35;;;;;;;79.95;7.97;;;;;;;;;;5057061;28;20204;-58
2022/08/23 12:17:25;;;;;;;70.40;8.23;;;;;;;;;;5055170;28;20219;-58
2022/08/23 12:20:04;;;;;;;59.72;7.57;;;;;;;;;;5054611;28;20200;-58
2022/08/23 12:23:06;;;;;;;70.68;7.65;;;;;;;;;;5055377;28;20185;-58
2022/08/23 12:25:34;;;;;;;79.57;7.60;;;;;;;;;;5056777;28;20203;-58
2022/08/23 12:28:30;;;;;;;53.42;7.45;;;;;;;;;;5056377;28;20226;-59
2022/08/23 12:31:12;;;;;;;77.20;8.32;;;;;;;;;;5055896;28;20218;-58
2022/08/23 12:33:50;;;;;;;70.80;7.63;;;;;;;;;;5037694;28;20549;-58
2022/08/23 12:36:26;;;;;;;52.80;6.68;;;;;;;;;;5055560;28;20203;-58
2022/08/23 12:39:03;;;;;;;72.47;8.68;;;;;;;;;;5039834;28;20215;-58
2022/08/23 12:41:42;;;;;;;84.50;8.02;;;;;;;;;;5055077;28;20215;-58
2022/08/23 12:44:09;;;;;;;58.55;6.95;;;;;;;;;;5034367;28;20522;-58
2022/08/23 12:46:41;;;;;;;83.85;7.82;;;;;;;;;;5036022;28;20263;-55
2022/08/23 12:49:21;;;;;;;72.72;8.02;;;;;;;;;;5038344;28;20223;-58
2022/08/23 12:51:50;;;;;;;72.32;7.10;;;;;;;;;;5034219;28;20246;-58
2022/08/23 12:54:21;;;;;;;64.72;7.13;;;;;;;;;;5041543;28;20258;-58
2022/08/23 12:56:53;;;;;;;71.53;6.80;;;;;;;;;;5062469;28;20220;-58
2022/08/23 12:59:33;;;;;;;67.22;7.90;;;;;;;;;;5034965;28;20228;-58
2022/08/23 13:02:04;;;;;;;63.95;7.65;;;;;;;;;;5065554;28;20698;-58
2022/08/23 13:04:33;;;;;;;83.07;8.00;;;;;;;;;;5068531;28;20253;-58
2022/08/23 13:07:04;;;;;;;52.53;6.93;;;;;;;;;;5056617;28;20219;-58
2022/08/23 13:09:36;;;;;;;59.17;6.82;;;;;;;;;;5057266;28;20678;-58
2022/08/23 13:12:05;;;;;;;86.47;8.20;;;;;;;;;;5074927;28;20226;-58
2022/08/23 13:14:38;;;;;;;55.13;7.18;;;;;;;;;;5057653;28;20239;-58
2022/08/23 13:17:11;;;;;;;71.45;7.30;;;;;;;;;;5065202;28;20656;-58
2022/08/23 13:19:38;;;;;;;67.07;6.70;;;;;;;;;;5053632;28;20228;-58
2022/08/23 13:22:17;;;;;;;66.72;7.00;;;;;;;;;;5053825;28;20251;-58
2022/08/23 13:24:57;;;;;;;54.35;6.57;;;;;;;;;;5054295;28;20311;-58
2022/08/23 13:27:44;;;;;;;60.78;7.53;;;;;;;;;;5054405;28;20224;-58
2022/08/23 13:30:11;;;;;;;69.00;7.35;;;;;;;;;;5054921;28;20232;-58
2022/08/23 13:32:45;;;;;;;63.97;6.75;;;;;;;;;;5053607;28;20226;-58
2022/08/23 13:35:32;;;;;;;66.28;8.02;;;;;;;;;;5059154;28;20230;-58
2022/08/23 13:38:12;;;;;;;68.13;7.45;;;;;;;;;;5034308;28;20312;-58
2022/08/23 13:40:58;;;;;;;46.15;6.35;;;;;;;;;;5034560;28;20229;-60
2022/08/23 13:43:30;;;;;;;51.75;6.28;;;;;;;;;;5033853;28;20224;-57
2022/08/23 13:46:07;;;;;;;55.13;6.57;;;;;;;;;;5034373;28;20233;-59
2022/08/23 13:48:36;;;;;;;67.55;6.65;;;;;;;;;;5032895;28;20247;-57
2022/08/23 13:51:39;;;;;;;59.00;6.60;;;;;;;;;;5034468;28;20225;-58
2022/08/23 13:54:12;;;;;;;45.63;5.72;;;;;;;;;;4954397;28;20234;-58
2022/08/23 13:56:52;;;;;;;48.92;5.90;;;;;;;;;;4954226;29;20231;-58
2022/08/23 13:59:55;;;;;;;56.90;5.80;;;;;;;;;;4953539;29;20238;-57
2022/08/23 14:02:23;;;;;;;56.45;6.20;;;;;;;;;;4914889;29;20621;-57
2022/08/23 14:04:50;;;;;;;49.25;5.43;;;;;;;;;;4914841;29;20241;-58
2022/08/23 14:07:18;;;;;;;54.78;6.43;;;;;;;;;;4913682;29;20240;-57
2022/08/23 14:09:45;;;;;;;52.53;5.78;;;;;;;;;;4915844;29;20233;-57
2022/08/23 14:12:21;;;;;;;57.85;5.95;;;;;;;;;;4914292;29;20323;-58
2022/08/23 14:14:49;;;;;;;37.53;4.80;;;;;;;;;;4898466;29;20255;-56
2022/08/23 14:17:16;;;;;;;50.25;5.80;;;;;;;;;;4914225;29;20244;-55
2022/08/23 14:19:47;;;;;;;45.65;5.88;;;;;;;;;;4915014;29;20319;-52
2022/08/23 14:22:34;;;;;;;39.95;5.88;;;;;;;;;;4915400;29;20319;-57
2022/08/23 14:25:02;;;;;;;47.63;5.95;;;;;;;;;;4914817;29;20262;-57
2022/08/23 14:27:29;;;;;;;46.88;5.25;;;;;;;;;;4931987;28;20347;-57
2022/08/23 14:29:57;;;;;;;49.03;5.15;;;;;;;;;;4976733;28;20702;-56
2022/08/23 14:32:24;;;;;;;44.38;5.43;;;;;;;;;;4992838;28;20232;-55
2022/08/23 14:34:51;;;;;;;45.40;4.63;;;;;;;;;;4991019;28;20249;-56
2022/08/23 14:37:18;;;;;;;53.45;5.60;;;;;;;;;;5027443;28;20237;-56
2022/08/23 14:40:06;;;;;;;52.63;6.70;;;;;;;;;;5044662;28;20739;-57
2022/08/23 14:42:33;;;;;;;43.88;5.10;;;;;;;;;;5052749;28;20208;-49
2022/08/23 14:45:00;;;;;;;49.15;6.43;;;;;;;;;;5052704;28;20208;-57
2022/08/23 14:47:28;;;;;;;49.10;5.38;;;;;;;;;;5052361;28;20224;-55
2022/08/23 14:49:55;;;;;;;51.65;6.00;;;;;;;;;;5054827;28;20204;-56
2022/08/23 14:52:22;;;;;;;53.13;6.38;;;;;;;;;;5054275;28;20290;-56
2022/08/23 14:54:49;;;;;;;71.22;6.63;;;;;;;;;;5054457;28;20228;-57
2022/08/23 14:57:16;;;;;;;50.80;5.70;;;;;;;;;;5036224;28;20204;-57
2022/08/23 14:59:43;;;;;;;40.40;5.25;;;;;;;;;;5054326;28;20200;-62
2022/08/23 15:02:12;;;;;;;39.45;5.47;;;;;;;;;;5051523;28;20196;-62
2022/08/23 15:04:40;;;;;;;41.45;5.28;;;;;;;;;;5054483;28;20299;-55
2022/08/23 15:07:08;;;;;;;41.80;5.70;;;;;;;;;;5054333;28;20289;-59
2022/08/23 15:09:47;;;;;;;48.50;5.78;;;;;;;;;;5054491;28;20188;-58
2022/08/23 15:12:18;;;;;;;51.03;6.03;;;;;;;;;;5053925;28;20643;-59
2022/08/23 15:15:08;;;;;;;38.75;5.88;;;;;;;;;;5053834;28;20231;-58
2022/08/23 15:17:50;;;;;;;64.15;6.57;;;;;;;;;;5054466;28;20207;-59
2022/08/23 15:20:20;;;;;;;59.15;5.82;;;;;;;;;;5057892;28;20207;-59
2022/08/23 15:22:47;;;;;;;42.53;4.80;;;;;;;;;;5058364;28;20210;-57
2022/08/23 15:25:24;;;;;;;45.40;5.10;;;;;;;;;;5057222;28;20286;-57
2022/08/23 15:27:51;;;;;;;47.25;4.72;;;;;;;;;;5058042;28;20303;-59
2022/08/23 15:30:18;;;;;;;44.92;4.70;;;;;;;;;;5057637;28;20697;-60
2022/08/23 15:32:45;;;;;;;50.28;5.53;;;;;;;;;;5054692;28;20643;-59
2022/08/23 15:35:23;;;;;;;44.75;5.50;;;;;;;;;;5054991;28;20239;-58
2022/08/23 15:37:51;;;;;;;59.60;5.82;;;;;;;;;;5057478;28;20238;-59
2022/08/23 15:40:18;;;;;;;55.63;6.30;;;;;;;;;;5057784;28;20235;-58
2022/08/23 15:42:45;;;;;;;41.38;5.18;;;;;;;;;;5057002;28;20196;-58
2022/08/23 15:45:12;;;;;;;43.00;5.07;;;;;;;;;;5057402;28;20667;-59
2022/08/23 15:47:50;;;;;;;39.13;5.65;;;;;;;;;;5057243;28;20231;-59
2022/08/23 15:50:20;;;;;;;33.92;5.65;;;;;;;;;;5057290;28;20219;-59
2022/08/23 15:52:47;;;;;;;37.83;5.07;;;;;;;;;;5056756;28;20258;-58
2022/08/23 15:55:15;;;;;;;51.03;5.78;;;;;;;;;;5056579;28;20228;-58
2022/08/23 15:57:48;;;;;;;41.40;4.85;;;;;;;;;;5057314;28;20204;-58
2022/08/23 16:00:17;;;;;;;50.45;5.80;;;;;;;;;;5039559;28;20176;-58
2022/08/23 16:02:47;;;;;;;34.47;5.57;;;;;;;;;;5056576;28;20215;-58
2022/08/23 16:05:36;;;;;;;45.97;6.00;;;;;;;;;;5057564;28;20261;-58
2022/08/23 16:08:05;;;;;;;41.53;5.03;;;;;;;;;;5039441;28;20201;-58
2022/08/23 16:10:32;;;;;;;42.00;5.07;;;;;;;;;;5056354;28;20204;-58
2022/08/23 16:12:59;;;;;;;39.00;5.47;;;;;;;;;;5055968;28;20231;-58
2022/08/23 16:15:27;;;;;;;43.88;5.10;;;;;;;;;;5056068;28;20294;-57
2022/08/23 16:17:54;;;;;;;47.53;5.22;;;;;;;;;;5056700;28;20210;-58
2022/08/23 16:20:21;;;;;;;35.50;4.88;;;;;;;;;;5039363;28;20302;-58
2022/08/23 16:22:49;;;;;;;45.58;5.85;;;;;;;;;;5056033;28;20219;-58
2022/08/23 16:25:16;;;;;;;46.03;5.00;;;;;;;;;;5056719;28;20207;-58
2022/08/23 16:27:43;;;;;;;41.13;5.75;;;;;;;;;;5055925;28;20702;-57
2022/08/23 16:30:12;;;;;;;45.53;6.28;;;;;;;;;;5054492;28;20637;-59
2022/08/23 16:32:40;;;;;;;48.40;5.55;;;;;;;;;;5056565;28;20200;-60
2022/08/23 16:35:08;;;;;;;52.65;6.07;;;;;;;;;;5054785;28;20277;-59
2022/08/23 16:37:35;;;;;;;48.08;5.82;;;;;;;;;;5054490;28;20266;-59
2022/08/23 16:40:06;;;;;;;45.55;6.30;;;;;;;;;;5055856;28;20668;-59
2022/08/23 16:42:33;;;;;;;35.15;5.25;;;;;;;;;;5056687;28;20507;-59
2022/08/23 16:45:01;;;;;;;42.05;5.05;;;;;;;;;;5055491;28;20215;-59
2022/08/23 16:47:31;;;;;;;44.88;5.10;;;;;;;;;;5038762;28;20239;-58
2022/08/23 16:49:58;;;;;;;51.38;5.57;;;;;;;;;;5054467;28;20220;-59
2022/08/23 16:52:25;;;;;;;44.63;5.05;;;;;;;;;;5034900;28;20196;-59
2022/08/23 16:55:05;;;;;;;46.47;5.57;;;;;;;;;;5055400;28;20216;-59
2022/08/23 16:57:33;;;;;;;43.33;6.25;;;;;;;;;;5054598;28;20246;-58
2022/08/23 17:00:00;;;;;;;49.70;5.50;;;;;;;;;;5054765;28;20647;-59
2022/08/23 17:02:34;;;;;;;38.45;5.35;;;;;;;;;;5054573;28;20212;-59
2022/08/23 17:05:03;;;;;;;48.60;4.85;;;;;;;;;;5055490;28;20279;-59
2022/08/23 17:07:29;;;;;;;47.10;5.10;;;;;;;;;;5054758;28;20274;-59
2022/08/23 17:09:56;;;;;;;42.83;4.90;;;;;;;;;;5055020;28;20269;-58
2022/08/23 17:12:24;;;;;;;41.75;5.18;;;;;;;;;;5054999;28;20219;-59
2022/08/23 17:14:53;;;;;;;40.00;5.10;;;;;;;;;;5055814;28;20220;-58
2022/08/23 17:17:20;;;;;;;44.28;5.93;;;;;;;;;;5055846;28;20207;-57
2022/08/23 17:19:47;;;;;;;35.58;5.60;;;;;;;;;;5055813;28;20207;-56
2022/08/23 17:22:14;;;;;;;44.53;6.15;;;;;;;;;;5055403;28;20530;-56
2022/08/23 17:24:41;;;;;;;48.20;5.53;;;;;;;;;;5055831;28;20231;-56
2022/08/23 17:27:09;;;;;;;42.67;6.18;;;;;;;;;;5055964;28;20528;-57
2022/08/23 17:29:45;;;;;;;42.25;5.15;;;;;;;;;;5048796;28;20189;-58
2022/08/23 17:32:12;;;;;;;39.65;5.80;;;;;;;;;;5043264;28;20204;-55
2022/08/23 17:34:39;;;;;;;50.00;6.30;;;;;;;;;;5051667;28;20188;-59
2022/08/23 17:37:20;;;;;;;42.65;5.97;;;;;;;;;;5043553;28;20204;-59
2022/08/23 17:39:48;;;;;;;39.50;5.25;;;;;;;;;;5049421;28;20210;-59
2022/08/23 17:42:20;;;;;;;35.40;5.45;;;;;;;;;;5051267;28;20273;-58
2022/08/23 17:44:47;;;;;;;38.58;5.18;;;;;;;;;;5044256;28;20219;-57
2022/08/23 17:47:16;;;;;;;45.28;4.80;;;;;;;;;;5051650;28;20247;-58
2022/08/23 17:49:44;;;;;;;34.75;4.68;;;;;;;;;;5051437;28;20224;-58
2022/08/23 17:52:11;;;;;;;36.40;4.75;;;;;;;;;;5052382;28;20277;-59
2022/08/23 17:54:39;;;;;;;37.22;4.60;;;;;;;;;;5047688;28;20267;-58
2022/08/23 17:57:07;;;;;;;46.60;5.25;;;;;;;;;;5052587;28;20239;-58
2022/08/23 17:59:35;;;;;;;38.25;4.82;;;;;;;;;;5050583;28;20226;-58
2022/08/23 18:02:03;;;;;;;44.38;5.95;;;;;;;;;;5035715;28;20220;-59
2022/08/23 18:04:30;;;;;;;37.47;4.70;;;;;;;;;;5035657;28;20251;-59
2022/08/23 18:06:58;;;;;;;38.15;4.75;;;;;;;;;;5037810;28;20270;-58
2022/08/23 18:09:25;;;;;;;43.45;5.43;;;;;;;;;;5053885;28;20315;-59
2022/08/23 18:11:52;;;;;;;43.13;5.70;;;;;;;;;;5053138;28;20219;-58
2022/08/23 18:14:19;;;;;;;44.22;4.25;;;;;;;;;;5052022;28;20298;-57
2022/08/23 18:16:47;;;;;;;43.40;5.55;;;;;;;;;;5052946;28;20239;-57
2022/08/23 18:19:14;;;;;;;42.90;5.70;;;;;;;;;;5054046;28;20234;-57
2022/08/23 18:21:42;;;;;;;29.02;4.28;;;;;;;;;;5053455;28;20270;-57
2022/08/23 18:24:09;;;;;;;40.10;4.85;;;;;;;;;;5054039;28;20247;-57
2022/08/23 18:29:22;;;;;;;45.90;6.25;;;;;;;;;;5048119;28;20289;-60
2022/08/23 18:31:49;;;;;;;37.90;5.50;;;;;;;;;;5049796;28;20245;-60
2022/08/23 18:34:18;;;;;;;51.92;5.75;;;;;;;;;;5052279;28;20222;-62
2022/08/23 18:36:45;;;;;;;40.10;6.60;;;;;;;;;;5052299;28;20232;-60
2022/08/23 18:39:13;;;;;;;41.58;5.53;;;;;;;;;;5050553;28;20239;-61
2022/08/23 18:41:41;;;;;;;45.17;5.50;;;;;;;;;;5037990;28;20219;-61
2022/08/23 18:44:08;;;;;;;56.33;6.47;;;;;;;;;;5041535;28;20672;-61
2022/08/23 18:46:38;;;;;;;34.17;6.35;;;;;;;;;;5041126;28;20217;-60
2022/08/23 18:49:06;;;;;;;52.17;9.18;;;;;;;;;;5042003;28;20290;-62
2022/08/23 18:51:33;;;;;;;27.27;4.85;;;;;;;;;;5043939;28;20704;-62
2022/08/23 18:54:00;;;;;;;32.17;5.00;;;;;;;;;;5054736;28;20216;-61
2022/08/23 18:56:27;;;;;;;30.75;5.38;;;;;;;;;;5055205;28;20231;-61
2022/08/23 18:58:54;;;;;;;31.95;5.78;;;;;;;;;;5057384;28;20231;-60
2022/08/23 19:01:28;;;;;;;41.45;6.25;;;;;;;;;;5053204;28;20297;-61
2022/08/23 19:04:01;;;;;;;47.40;7.68;;;;;;;;;;5054576;28;20234;-60
2022/08/23 19:06:28;;;;;;;34.22;7.32;;;;;;;;;;5053176;28;20327;-60